Walkertown, Kentucky
Current Conditions -  °F | °C
As of 9:53 AM on Monday 24 Nov 2014 (Local Time) from KJKL Reporting Station
Broken Clouds Broken Clouds  
Wind Chill: 64°   Ceiling: 6000
Heat Index: 64°   Visibility: 10mi
Dew Point: 46°   Wind: 10mph
Humidity: 52%   Direction: 230°SW
Pressure: 29.56"   Gusts: 25mph
Location:  37.2415°N, 83.2013°W
Report Text: KJKL 241453Z AUTO 23009G22KT 130V290 10SM SCT049 BKN060 18/08 A2956 RMK AO2 PK WND 23028/1437 SLP002 T01780078 53019
Loading
Personal Weather Stations






























Interactive Weather Map New forecast layout! Learn more

10-Day Weather Forecast

Advertisements
Track Severe Weather on mobile